createdAt,value
2023-02-19T00:01:16.299Z,9.56
2023-02-19T00:03:47.407Z,9.55
2023-02-19T00:06:13.837Z,9.55
2023-02-19T00:08:40.230Z,9.54
2023-02-19T00:11:11.054Z,9.53
2023-02-19T00:13:40.154Z,9.55
2023-02-19T00:16:12.328Z,9.54
2023-02-19T00:18:38.680Z,9.52
2023-02-19T00:21:05.423Z,9.51
2023-02-19T00:23:32.787Z,9.52
2023-02-19T00:26:18.641Z,9.52
2023-02-19T00:28:46.815Z,9.52
2023-02-19T00:31:21.921Z,9.54
2023-02-19T00:33:50.416Z,9.54
2023-02-19T00:36:16.853Z,9.53
2023-02-19T00:38:46.472Z,9.51
2023-02-19T00:41:20.628Z,9.52
2023-02-19T00:43:53.009Z,9.51
2023-02-19T00:46:25.502Z,9.49
2023-02-19T00:48:52.749Z,9.50
2023-02-19T00:51:21.050Z,9.51
2023-02-19T00:53:47.662Z,9.50
2023-02-19T00:56:16.402Z,9.50
2023-02-19T00:58:42.726Z,9.50
2023-02-19T01:01:10.257Z,9.49
2023-02-19T01:03:37.766Z,9.49
2023-02-19T01:06:06.210Z,9.50
2023-02-19T01:08:33.224Z,9.50
2023-02-19T01:11:00.001Z,9.50
2023-02-19T01:13:28.178Z,9.50
2023-02-19T01:16:02.353Z,9.50
2023-02-19T01:18:28.709Z,9.49
2023-02-19T01:20:55.047Z,9.49
2023-02-19T01:23:21.365Z,9.49
2023-02-19T01:25:47.933Z,9.50
2023-02-19T01:28:14.290Z,9.48
2023-02-19T01:30:41.022Z,9.47
2023-02-19T01:33:08.622Z,9.47
2023-02-19T01:35:38.582Z,9.46
2023-02-19T01:38:07.330Z,9.45
2023-02-19T01:40:34.069Z,9.45
2023-02-19T01:43:00.510Z,9.44
2023-02-19T01:45:33.601Z,9.43
2023-02-19T01:48:13.560Z,9.42
2023-02-19T01:51:05.156Z,9.42
2023-02-19T01:53:36.486Z,9.39
2023-02-19T01:56:04.994Z,9.38
2023-02-19T01:58:34.221Z,9.38
2023-02-19T02:01:04.658Z,9.37
2023-02-19T02:03:32.168Z,9.36
2023-02-19T02:06:07.893Z,9.34
2023-02-19T02:08:52.883Z,9.35
2023-02-19T02:11:20.107Z,9.33
2023-02-19T02:13:46.456Z,9.32
2023-02-19T02:16:34.160Z,9.32
2023-02-19T02:19:24.751Z,9.29
2023-02-19T02:22:13.605Z,9.28
2023-02-19T02:25:00.397Z,9.27
2023-02-19T02:27:29.849Z,9.26
2023-02-19T02:30:02.078Z,9.25
2023-02-19T02:32:58.071Z,9.24
2023-02-19T02:35:34.469Z,9.23
2023-02-19T02:38:04.821Z,9.23
2023-02-19T02:40:31.604Z,9.22
2023-02-19T02:42:59.705Z,9.22
2023-02-19T02:45:38.236Z,9.22
2023-02-19T02:48:20.964Z,9.21
2023-02-19T02:50:52.513Z,9.21
2023-02-19T02:54:02.964Z,9.20
2023-02-19T02:56:31.180Z,9.20
2023-02-19T02:59:00.823Z,9.19
2023-02-19T03:01:55.687Z,9.19
2023-02-19T03:05:05.354Z,9.16
2023-02-19T03:07:39.059Z,9.17
2023-02-19T03:10:10.052Z,9.17
2023-02-19T03:12:57.186Z,9.18
2023-02-19T03:15:46.988Z,9.15
2023-02-19T03:18:33.113Z,9.15
2023-02-19T03:21:02.304Z,9.16
2023-02-19T03:23:51.324Z,9.16
2023-02-19T03:26:19.354Z,9.15
2023-02-19T03:29:08.339Z,9.14
2023-02-19T03:31:37.519Z,9.14
2023-02-19T03:34:10.125Z,9.14
2023-02-19T03:36:54.171Z,9.13
2023-02-19T03:39:23.250Z,9.12
2023-02-19T03:42:07.869Z,9.10
2023-02-19T03:44:43.358Z,9.10
2023-02-19T03:47:23.317Z,9.09
2023-02-19T03:50:03.222Z,9.08
2023-02-19T03:52:41.934Z,9.06
2023-02-19T03:55:23.052Z,9.04
2023-02-19T03:58:21.231Z,9.04
2023-02-19T04:01:11.927Z,9.03
2023-02-19T04:03:59.188Z,9.03
2023-02-19T04:06:29.249Z,9.01
2023-02-19T04:09:00.494Z,9.01
2023-02-19T04:11:28.860Z,9.00
2023-02-19T04:14:01.262Z,8.98
2023-02-19T04:16:29.701Z,8.96
2023-02-19T04:19:05.105Z,8.95
2023-02-19T04:21:33.659Z,8.94
2023-02-19T04:24:06.302Z,8.95
2023-02-19T04:26:34.121Z,8.95
2023-02-19T04:29:01.417Z,8.93
2023-02-19T04:31:31.294Z,8.94
2023-02-19T04:33:57.693Z,8.93
2023-02-19T04:36:24.256Z,8.91
2023-02-19T04:38:50.562Z,8.94
2023-02-19T04:41:16.888Z,8.93
2023-02-19T04:43:43.462Z,8.94
2023-02-19T04:46:09.809Z,8.93
2023-02-19T04:48:36.353Z,8.93
2023-02-19T04:51:07.161Z,8.93
2023-02-19T04:53:34.534Z,8.92
2023-02-19T04:56:12.836Z,8.93
2023-02-19T04:58:40.749Z,8.93
2023-02-19T05:01:07.524Z,8.92
2023-02-19T05:03:37.277Z,8.94
2023-02-19T05:06:12.494Z,8.92
2023-02-19T05:08:39.348Z,8.92
2023-02-19T05:11:07.842Z,8.92
2023-02-19T05:13:34.648Z,8.91
2023-02-19T05:16:05.410Z,8.90
2023-02-19T05:18:33.142Z,8.89
2023-02-19T05:20:59.482Z,8.90
2023-02-19T05:23:27.319Z,8.90
2023-02-19T05:25:53.843Z,8.89
2023-02-19T05:28:21.810Z,8.90
2023-02-19T05:30:51.099Z,8.90
2023-02-19T05:33:19.526Z,8.90
2023-02-19T05:35:48.248Z,8.88
2023-02-19T05:38:15.798Z,8.87
2023-02-19T05:40:42.714Z,8.86
2023-02-19T05:43:09.326Z,8.85
2023-02-19T05:45:36.874Z,8.84
2023-02-19T05:48:04.533Z,8.85
2023-02-19T05:50:37.777Z,8.84
2023-02-19T05:53:05.647Z,8.84
2023-02-19T05:55:35.548Z,8.85
2023-02-19T05:58:01.869Z,8.84
2023-02-19T06:00:28.307Z,8.84
2023-02-19T06:02:55.367Z,8.83
2023-02-19T06:05:21.844Z,8.83
2023-02-19T06:07:50.331Z,8.82
2023-02-19T06:10:17.269Z,8.82
2023-02-19T06:12:43.587Z,8.80
2023-02-19T06:15:09.937Z,8.80
2023-02-19T06:17:36.249Z,8.80
2023-02-19T06:20:02.936Z,8.79
2023-02-19T06:22:29.296Z,8.79
2023-02-19T06:24:55.693Z,8.78
2023-02-19T06:27:22.050Z,8.76
2023-02-19T06:29:48.426Z,8.74
2023-02-19T06:32:14.794Z,8.72
2023-02-19T06:34:41.148Z,8.72
2023-02-19T06:37:07.744Z,8.71
2023-02-19T06:39:34.616Z,8.70
2023-02-19T06:42:00.995Z,8.69
2023-02-19T06:44:27.354Z,8.67
2023-02-19T06:46:56.984Z,8.66
2023-02-19T06:49:23.482Z,8.65
2023-02-19T06:51:50.057Z,8.65
2023-02-19T06:54:16.937Z,8.63
2023-02-19T06:56:46.076Z,8.62
2023-02-19T06:59:16.825Z,8.61
2023-02-19T07:01:44.233Z,8.59
2023-02-19T07:04:11.174Z,8.58
2023-02-19T07:06:38.456Z,8.58
2023-02-19T07:09:06.804Z,8.57
2023-02-19T07:11:34.676Z,8.57
2023-02-19T07:14:02.960Z,8.58
2023-02-19T07:16:29.602Z,8.58
2023-02-19T07:18:57.938Z,8.57
2023-02-19T07:21:27.825Z,8.58
2023-02-19T07:23:54.218Z,8.60
2023-02-19T07:26:22.391Z,8.60
2023-02-19T07:28:50.522Z,8.60
2023-02-19T07:31:18.721Z,8.60
2023-02-19T07:33:46.347Z,8.60
2023-02-19T07:36:13.823Z,8.62
2023-02-19T07:38:40.161Z,8.64
2023-02-19T07:41:07.090Z,8.64
2023-02-19T07:43:35.698Z,8.64
2023-02-19T07:46:09.942Z,8.67
2023-02-19T07:48:37.281Z,8.68
2023-02-19T07:51:07.705Z,8.69
2023-02-19T07:53:35.464Z,8.69
2023-02-19T07:56:07.496Z,8.70
2023-02-19T07:58:34.516Z,8.71
2023-02-19T08:01:09.547Z,8.71
2023-02-19T08:03:37.430Z,8.72
2023-02-19T08:06:04.865Z,8.73
2023-02-19T08:08:31.291Z,8.73
2023-02-19T08:11:25.608Z,8.73
2023-02-19T08:13:53.353Z,8.73
2023-02-19T08:16:36.839Z,8.75
2023-02-19T08:19:08.715Z,8.76
2023-02-19T08:21:35.022Z,8.79
2023-02-19T08:24:01.374Z,8.80
2023-02-19T08:26:27.729Z,8.81
2023-02-19T08:28:54.061Z,8.81
2023-02-19T08:31:20.500Z,8.82
2023-02-19T08:33:47.037Z,8.81
2023-02-19T08:36:13.407Z,8.80
2023-02-19T08:38:39.797Z,8.83
2023-02-19T08:41:08.165Z,8.86
2023-02-19T08:43:35.896Z,8.92
2023-02-19T08:46:03.013Z,8.97
2023-02-19T08:48:29.718Z,9.01
2023-02-19T08:51:04.003Z,9.12
2023-02-19T08:53:32.123Z,9.19
2023-02-19T08:55:58.753Z,9.18
2023-02-19T08:58:29.409Z,9.15
2023-02-19T09:00:55.774Z,9.17
2023-02-19T09:03:22.166Z,9.19
2023-02-19T09:05:48.549Z,9.37
2023-02-19T09:08:16.010Z,9.40
2023-02-19T09:10:42.530Z,9.43
2023-02-19T09:13:08.925Z,9.51
2023-02-19T09:15:36.998Z,9.54
2023-02-19T09:18:03.450Z,9.65
2023-02-19T09:20:29.858Z,9.79
2023-02-19T09:22:57.394Z,9.84
2023-02-19T09:25:23.814Z,9.83
2023-02-19T09:27:50.397Z,9.89
2023-02-19T09:30:17.103Z,9.83
2023-02-19T09:32:43.679Z,9.86
2023-02-19T09:35:09.978Z,9.79
2023-02-19T09:37:36.299Z,9.74
2023-02-19T09:40:02.630Z,9.66
2023-02-19T09:42:32.658Z,9.61
2023-02-19T09:45:01.497Z,9.58
2023-02-19T09:47:31.338Z,9.56
2023-02-19T09:50:09.453Z,9.51
2023-02-19T09:52:45.154Z,9.42
2023-02-19T09:55:16.478Z,9.38
2023-02-19T09:57:43.994Z,9.31
2023-02-19T10:00:22.217Z,9.31
2023-02-19T10:02:52.580Z,9.30
2023-02-19T10:05:20.007Z,9.32
2023-02-19T10:07:50.677Z,9.39
2023-02-19T10:10:22.279Z,9.41
2023-02-19T10:12:52.035Z,9.44
2023-02-19T10:15:27.411Z,9.39
2023-02-19T10:17:54.112Z,9.35
2023-02-19T10:20:24.655Z,9.24
2023-02-19T10:23:01.902Z,9.13
2023-02-19T10:25:32.834Z,9.12
2023-02-19T10:28:00.065Z,9.10
2023-02-19T10:30:33.085Z,9.15
2023-02-19T10:33:01.186Z,9.19
2023-02-19T10:35:28.490Z,9.19
2023-02-19T10:37:54.979Z,9.19
2023-02-19T10:40:28.987Z,9.21
2023-02-19T10:43:04.617Z,9.21
2023-02-19T10:45:40.668Z,9.21
2023-02-19T10:48:21.094Z,9.22
2023-02-19T10:50:57.000Z,9.30
2023-02-19T10:53:35.229Z,9.32
2023-02-19T10:56:12.550Z,9.27
2023-02-19T10:58:42.215Z,9.19
2023-02-19T11:01:14.715Z,9.12
2023-02-19T11:03:42.266Z,9.14
2023-02-19T11:06:11.693Z,9.15
2023-02-19T11:08:54.763Z,9.23
2023-02-19T11:11:33.788Z,9.35
2023-02-19T11:14:05.063Z,9.27
2023-02-19T11:16:43.041Z,9.21
2023-02-19T11:19:23.873Z,9.13
2023-02-19T11:21:50.628Z,9.16
2023-02-19T11:24:25.765Z,9.19
2023-02-19T11:26:52.498Z,9.18
2023-02-19T11:29:23.079Z,9.16
2023-02-19T11:31:49.568Z,9.07
2023-02-19T11:34:21.252Z,9.12
2023-02-19T11:37:07.606Z,9.21
2023-02-19T11:39:34.345Z,9.20
2023-02-19T11:42:06.788Z,9.25
2023-02-19T11:44:49.349Z,9.11
2023-02-19T11:47:57.790Z,9.13
2023-02-19T11:50:46.341Z,9.20
2023-02-19T11:53:12.846Z,9.19
2023-02-19T11:56:02.382Z,9.25
2023-02-19T11:58:46.886Z,9.16
2023-02-19T12:01:16.138Z,9.21
2023-02-19T12:04:19.544Z,9.26
2023-02-19T12:06:56.195Z,9.20
2023-02-19T12:09:22.469Z,9.13
2023-02-19T12:12:16.430Z,9.05
2023-02-19T12:15:07.709Z,9.00
2023-02-19T12:17:42.203Z,9.00
2023-02-19T12:20:21.663Z,8.91
2023-02-19T12:23:36.211Z,8.75
2023-02-19T12:26:20.445Z,8.64
2023-02-19T12:28:49.518Z,8.67
2023-02-19T12:31:35.186Z,8.69
2023-02-19T12:34:19.657Z,8.69
2023-02-19T12:36:58.240Z,8.65
2023-02-19T12:39:33.734Z,8.66
2023-02-19T12:42:15.155Z,8.57
2023-02-19T12:45:07.115Z,8.57
2023-02-19T12:47:40.627Z,8.53
2023-02-19T12:50:23.682Z,8.49
2023-02-19T12:52:56.114Z,8.51
2023-02-19T12:55:30.666Z,8.49
2023-02-19T12:58:01.322Z,8.53
2023-02-19T13:00:41.672Z,8.50
2023-02-19T13:03:34.755Z,8.44
2023-02-19T13:06:21.733Z,8.45
2023-02-19T13:09:06.776Z,8.37
2023-02-19T13:11:58.979Z,8.42
2023-02-19T13:14:39.801Z,8.43
2023-02-19T13:17:28.390Z,8.46
2023-02-19T13:20:31.138Z,8.46
2023-02-19T13:23:27.091Z,8.48
2023-02-19T13:26:05.243Z,8.48
2023-02-19T13:28:42.137Z,8.38
2023-02-19T13:31:36.089Z,8.28
2023-02-19T13:34:47.948Z,8.27
2023-02-19T13:37:16.459Z,8.24
2023-02-19T13:39:51.800Z,8.13
2023-02-19T13:42:28.192Z,8.11
2023-02-19T13:44:57.890Z,8.11
2023-02-19T13:47:59.496Z,8.06
2023-02-19T13:50:31.464Z,8.10
2023-02-19T13:52:59.690Z,8.09
2023-02-19T13:55:46.008Z,8.00
2023-02-19T13:58:34.248Z,8.02
2023-02-19T14:01:09.380Z,7.95
2023-02-19T14:03:38.850Z,7.99
2023-02-19T14:06:08.468Z,7.93
2023-02-19T14:08:57.672Z,7.96
2023-02-19T14:11:41.987Z,8.02
2023-02-19T14:14:37.632Z,8.02
2023-02-19T14:17:10.133Z,8.02
2023-02-19T14:19:46.500Z,8.03
2023-02-19T14:22:55.310Z,8.11
2023-02-19T14:25:27.745Z,8.20
2023-02-19T14:28:02.613Z,8.22
2023-02-19T14:30:31.219Z,8.21
2023-02-19T14:33:09.651Z,8.18
2023-02-19T14:35:52.818Z,8.12
2023-02-19T14:38:33.572Z,8.16
2023-02-19T14:41:00.864Z,8.22
2023-02-19T14:43:28.606Z,8.28
2023-02-19T14:46:02.627Z,8.29
2023-02-19T14:48:33.391Z,8.33
2023-02-19T14:51:07.123Z,8.38
2023-02-19T14:53:39.443Z,8.36
2023-02-19T14:56:16.493Z,8.34
2023-02-19T14:58:42.824Z,8.40
2023-02-19T15:01:25.869Z,8.44
2023-02-19T15:03:57.252Z,8.46
2023-02-19T15:06:24.400Z,8.46
2023-02-19T15:08:55.059Z,8.48
2023-02-19T15:11:24.435Z,8.50
2023-02-19T15:13:55.838Z,8.54
2023-02-19T15:16:25.929Z,8.60
2023-02-19T15:18:54.968Z,8.61
2023-02-19T15:21:27.018Z,8.59
2023-02-19T15:23:56.264Z,8.58
2023-02-19T15:26:31.866Z,8.55
2023-02-19T15:29:10.615Z,8.51
2023-02-19T15:31:44.133Z,8.53
2023-02-19T15:34:19.897Z,8.50
2023-02-19T15:36:49.824Z,8.50
2023-02-19T15:39:22.587Z,8.50
2023-02-19T15:41:56.294Z,8.47
2023-02-19T15:44:38.606Z,8.44
2023-02-19T15:47:14.019Z,8.41
2023-02-19T15:50:04.634Z,8.34
2023-02-19T15:52:39.340Z,8.30
2023-02-19T15:55:21.454Z,8.18
2023-02-19T15:58:01.345Z,8.15
2023-02-19T16:00:40.185Z,8.10
2023-02-19T16:03:13.080Z,8.10
2023-02-19T16:05:41.710Z,8.07
2023-02-19T16:08:11.038Z,8.04
2023-02-19T16:10:38.267Z,8.02
2023-02-19T16:13:07.074Z,8.01
2023-02-19T16:15:34.215Z,8.00
2023-02-19T16:18:00.961Z,7.96
2023-02-19T16:20:33.592Z,7.93
2023-02-19T16:23:11.219Z,7.91
2023-02-19T16:25:42.019Z,7.87
2023-02-19T16:28:21.555Z,7.84
2023-02-19T16:30:56.856Z,7.83
2023-02-19T16:33:48.384Z,7.81
2023-02-19T16:36:41.464Z,7.79
2023-02-19T16:39:07.802Z,7.75
2023-02-19T16:41:40.208Z,7.69
2023-02-19T16:44:24.777Z,7.64
2023-02-19T16:46:58.042Z,7.64
2023-02-19T16:49:24.639Z,7.61
2023-02-19T16:51:51.402Z,7.55
2023-02-19T16:54:17.728Z,7.55
2023-02-19T16:56:44.081Z,7.51
2023-02-19T16:59:10.996Z,7.50
2023-02-19T17:01:44.325Z,7.50
2023-02-19T17:04:13.272Z,7.48
2023-02-19T17:06:39.706Z,7.46
2023-02-19T17:09:08.424Z,7.46
2023-02-19T17:11:36.036Z,7.46
2023-02-19T17:14:02.409Z,7.44
2023-02-19T17:16:40.226Z,7.43
2023-02-19T17:19:15.848Z,7.38
2023-02-19T17:21:42.205Z,7.36
2023-02-19T17:24:08.883Z,7.35
2023-02-19T17:26:35.211Z,7.30
2023-02-19T17:29:04.237Z,7.28
2023-02-19T17:31:30.848Z,7.28
2023-02-19T17:33:57.266Z,7.26
2023-02-19T17:36:26.931Z,7.25
2023-02-19T17:38:54.139Z,7.22
2023-02-19T17:41:20.522Z,7.23
2023-02-19T17:43:47.530Z,7.20
2023-02-19T17:46:15.873Z,7.19
2023-02-19T17:48:42.480Z,7.18
2023-02-19T17:51:08.992Z,7.15
2023-02-19T17:53:35.371Z,7.14
2023-02-19T17:56:01.741Z,7.13
2023-02-19T17:58:28.060Z,7.11
2023-02-19T18:01:00.904Z,7.11
2023-02-19T18:03:27.342Z,7.10
2023-02-19T18:05:54.076Z,7.09
2023-02-19T18:08:20.374Z,7.09
2023-02-19T18:10:46.796Z,7.09
2023-02-19T18:13:13.283Z,7.08
2023-02-19T18:15:39.638Z,7.06
2023-02-19T18:18:06.011Z,7.05
2023-02-19T18:20:32.351Z,7.01
2023-02-19T18:22:59.155Z,7.03
2023-02-19T18:25:25.896Z,6.99
2023-02-19T18:27:52.535Z,6.98
2023-02-19T18:30:20.592Z,6.96
2023-02-19T18:32:48.110Z,6.94
2023-02-19T18:35:15.812Z,6.88
2023-02-19T18:37:42.155Z,6.84
2023-02-19T18:40:11.257Z,6.77
2023-02-19T18:42:37.734Z,6.70
2023-02-19T18:45:04.329Z,6.66
2023-02-19T18:47:30.695Z,6.61
2023-02-19T18:49:59.441Z,6.59
2023-02-19T18:52:27.150Z,6.54
2023-02-19T18:54:55.705Z,6.49
2023-02-19T18:57:24.026Z,6.41
2023-02-19T18:59:50.521Z,6.33
2023-02-19T19:02:17.673Z,6.28
2023-02-19T19:04:49.705Z,6.22
2023-02-19T19:07:16.222Z,6.16
2023-02-19T19:09:42.614Z,6.07
2023-02-19T19:12:08.957Z,6.00
2023-02-19T19:14:35.360Z,5.91
2023-02-19T19:17:01.709Z,5.80
2023-02-19T19:19:28.114Z,5.78
2023-02-19T19:21:55.503Z,5.70
2023-02-19T19:24:24.010Z,5.66
2023-02-19T19:26:52.102Z,5.58
2023-02-19T19:29:20.360Z,5.53
2023-02-19T19:31:46.954Z,5.54
2023-02-19T19:34:14.030Z,5.51
2023-02-19T19:36:40.382Z,5.47
2023-02-19T19:39:07.160Z,5.43
2023-02-19T19:41:33.548Z,5.38
2023-02-19T19:44:05.367Z,5.38
2023-02-19T19:46:32.293Z,5.38
2023-02-19T19:48:58.770Z,5.37
2023-02-19T19:51:32.074Z,5.30
2023-02-19T19:53:58.462Z,5.28
2023-02-19T19:56:25.102Z,5.21
2023-02-19T19:58:51.844Z,5.10
2023-02-19T20:01:21.366Z,5.08
2023-02-19T20:03:48.226Z,5.00
2023-02-19T20:06:14.657Z,4.95
2023-02-19T20:08:41.115Z,4.97
2023-02-19T20:11:07.425Z,4.97
2023-02-19T20:13:34.486Z,5.00
2023-02-19T20:16:00.931Z,4.97
2023-02-19T20:18:27.469Z,4.95
2023-02-19T20:20:53.854Z,4.92
2023-02-19T20:23:20.274Z,4.87
2023-02-19T20:25:46.663Z,4.84
2023-02-19T20:28:12.996Z,4.78
2023-02-19T20:30:39.464Z,4.77
2023-02-19T20:33:05.810Z,4.77
2023-02-19T20:35:32.366Z,4.75
2023-02-19T20:37:58.715Z,4.73
2023-02-19T20:40:27.359Z,4.73
2023-02-19T20:42:54.070Z,4.73
2023-02-19T20:45:20.509Z,4.70
2023-02-19T20:47:47.792Z,4.67
2023-02-19T20:50:17.361Z,4.64
2023-02-19T20:52:43.838Z,4.60
2023-02-19T20:55:10.245Z,4.56
2023-02-19T20:57:37.608Z,4.56
2023-02-19T21:00:05.539Z,4.58
2023-02-19T21:02:31.954Z,4.55
2023-02-19T21:04:58.666Z,4.56
2023-02-19T21:07:26.000Z,4.56
2023-02-19T21:09:52.944Z,4.55
2023-02-19T21:12:20.708Z,4.55
2023-02-19T21:14:47.208Z,4.56
2023-02-19T21:17:13.629Z,4.54
2023-02-19T21:19:40.193Z,4.55
2023-02-19T21:22:06.562Z,4.55
2023-02-19T21:24:32.925Z,4.53
2023-02-19T21:26:59.270Z,4.53
2023-02-19T21:29:25.922Z,4.53
2023-02-19T21:31:55.486Z,4.54
2023-02-19T21:34:24.841Z,4.52
2023-02-19T21:36:51.242Z,4.52
2023-02-19T21:39:19.864Z,4.53
2023-02-19T21:41:46.357Z,4.53
2023-02-19T21:44:13.317Z,4.54
2023-02-19T21:46:39.895Z,4.54
2023-02-19T21:49:06.480Z,4.53
2023-02-19T21:51:35.357Z,4.50
2023-02-19T21:54:02.378Z,4.49
2023-02-19T21:56:35.870Z,4.47
2023-02-19T21:59:02.886Z,4.47
2023-02-19T22:01:34.548Z,4.49
2023-02-19T22:04:01.062Z,4.49
2023-02-19T22:06:29.943Z,4.48
2023-02-19T22:08:57.142Z,4.47
2023-02-19T22:11:23.779Z,4.48
2023-02-19T22:13:50.753Z,4.48
2023-02-19T22:16:17.586Z,4.49
2023-02-19T22:18:48.477Z,4.48
2023-02-19T22:21:15.695Z,4.46
2023-02-19T22:23:47.441Z,4.44
2023-02-19T22:26:21.681Z,4.42
2023-02-19T22:28:48.241Z,4.42
2023-02-19T22:31:16.174Z,4.43
2023-02-19T22:33:42.934Z,4.45
2023-02-19T22:36:21.208Z,4.46
2023-02-19T22:38:48.202Z,4.48
2023-02-19T22:41:15.578Z,4.48
2023-02-19T22:43:42.191Z,4.48
2023-02-19T22:46:20.465Z,4.46
2023-02-19T22:48:46.953Z,4.45
2023-02-19T22:51:19.004Z,4.46
2023-02-19T22:53:46.068Z,4.44
2023-02-19T22:56:13.972Z,4.43
2023-02-19T22:58:41.033Z,4.44
2023-02-19T23:01:07.774Z,4.44
2023-02-19T23:03:34.289Z,4.44
2023-02-19T23:06:04.622Z,4.45
2023-02-19T23:08:30.934Z,4.47
2023-02-19T23:10:57.309Z,4.48
2023-02-19T23:13:23.780Z,4.50
2023-02-19T23:15:50.087Z,4.51
2023-02-19T23:18:16.424Z,4.55
2023-02-19T23:20:42.887Z,4.57
2023-02-19T23:23:09.204Z,4.60
2023-02-19T23:25:35.630Z,4.62
2023-02-19T23:28:01.933Z,4.63
2023-02-19T23:30:28.384Z,4.66
2023-02-19T23:32:54.867Z,4.69
2023-02-19T23:35:21.182Z,4.72
2023-02-19T23:37:47.691Z,4.73
2023-02-19T23:40:14.484Z,4.77
2023-02-19T23:42:40.838Z,4.78
2023-02-19T23:45:07.524Z,4.81
2023-02-19T23:47:34.146Z,4.82
2023-02-19T23:50:00.496Z,4.84
2023-02-19T23:52:26.801Z,4.84
2023-02-19T23:54:53.139Z,4.86
2023-02-19T23:57:19.486Z,4.87
2023-02-19T23:59:49.389Z,4.87
